Time;durP1;ratioP1;P1;durP2;ratioP2;P2;SDS_P1;SDS_P2;PMS_P1;PMS_P2;Temp;Humidity;BMP_temperature;BMP_pressure;BME280_temperature;BME280_humidity;BME280_pressure;Samples;Min_cycle;Max_cycle;Signal;HPM_P1;HPM_P2
2022/12/02 00:00:20;;;;;;;;;44.50;38.00;;;;;6.63;70.48;101532.06;5061008;28;45432;-70
2022/12/02 00:02:46;;;;;;;;;50.50;39.50;;;;;6.62;70.97;101518.09;5044938;28;45292;-69
2022/12/02 00:05:14;;;;;;;;;47.00;40.50;;;;;6.63;71.50;101516.38;5059303;28;45284;-68
2022/12/02 00:07:42;;;;;;;;;44.75;39.75;;;;;6.60;71.02;101511.16;5039010;28;47321;-68
2022/12/02 00:10:29;;;;;;;;;46.00;39.25;;;;;6.60;71.69;101509.41;5056343;28;45407;-68
2022/12/02 00:13:01;;;;;;;;;44.50;38.50;;;;;6.50;71.48;101489.44;5056383;28;45419;-70
2022/12/02 00:15:37;;;;;;;;;50.00;43.25;;;;;6.64;71.32;101507.66;5056594;28;45371;-69
2022/12/02 00:18:03;;;;;;;;;44.75;39.00;;;;;6.60;70.88;101500.72;5038084;28;47203;-66
2022/12/02 00:20:28;;;;;;;;;47.75;40.25;;;;;6.61;71.92;101500.69;5056171;28;45342;-67
2022/12/02 00:22:54;;;;;;;;;52.00;43.75;;;;;6.55;71.10;101493.78;5056777;28;45384;-68
2022/12/02 00:25:19;;;;;;;;;47.75;40.25;;;;;6.56;71.69;101499.84;5056281;28;45525;-70
2022/12/02 00:27:45;;;;;;;;;47.50;40.00;;;;;6.52;71.23;101492.91;5055913;28;46339;-70
2022/12/02 00:30:11;;;;;;;;;51.25;43.25;;;;;6.53;71.47;101498.16;5055875;28;45185;-73
2022/12/02 00:32:36;;;;;;;;;41.75;37.25;;;;;6.52;71.28;101504.25;5056038;28;45428;-68
2022/12/02 00:35:01;;;;;;;;;48.75;41.50;;;;;6.52;72.06;101493.81;5057757;28;45471;-70
2022/12/02 00:37:27;;;;;;;;;45.00;37.50;;;;;6.53;71.84;101490.31;5055695;28;45249;-70
2022/12/02 00:39:52;;;;;;;;;50.25;42.25;;;;;6.52;72.14;101490.31;5055793;28;45373;-68
2022/12/02 00:42:17;;;;;;;;;50.25;43.50;;;;;6.53;72.67;101490.31;5055414;28;45234;-70
2022/12/02 00:47:26;;;;;;;;;53.00;43.25;;;;;6.52;73.13;101478.13;5055666;28;45869;-70
2022/12/02 00:49:51;;;;;;;;;51.50;43.50;;;;;6.55;71.72;101470.25;5055654;28;45330;-71
2022/12/02 00:52:17;;;;;;;;;45.00;39.50;;;;;6.49;72.40;101461.59;5056002;28;45360;-73
2022/12/02 00:54:42;;;;;;;;;48.50;41.50;;;;;6.51;72.29;101465.06;5056688;28;45303;-68
2022/12/02 00:57:07;;;;;;;;;47.75;40.50;;;;;6.46;72.71;101457.25;5055521;28;48580;-73
2022/12/02 00:59:33;;;;;;;;;46.75;41.25;;;;;6.43;72.24;101447.69;5054882;28;45280;-73
2022/12/02 01:01:58;;;;;;;;;52.50;44.00;;;;;6.34;72.18;101431.22;5055683;28;45840;-74
2022/12/02 01:04:23;;;;;;;;;45.25;37.50;;;;;6.55;73.33;101465.03;5037396;28;45527;-72
2022/12/02 01:06:49;;;;;;;;;50.50;41.25;;;;;6.53;72.77;101460.66;5053556;28;45512;-73
2022/12/02 01:09:14;;;;;;;;;50.25;43.00;;;;;6.54;72.18;101465.91;5054822;28;45240;-72
2022/12/02 01:11:40;;;;;;;;;55.25;46.75;;;;;6.52;72.90;101464.16;5055229;28;45351;-70
2022/12/02 01:14:05;;;;;;;;;48.50;39.50;;;;;6.56;72.60;101458.03;5036814;28;45482;-71
2022/12/02 01:16:30;;;;;;;;;51.75;43.25;;;;;6.57;72.10;101463.25;5054968;28;46341;-72
2022/12/02 01:18:56;;;;;;;;;49.00;42.50;;;;;6.57;73.05;101463.25;5055482;28;45435;-70
2022/12/02 01:21:22;;;;;;;;;44.00;38.00;;;;;6.49;73.00;101441.56;5056012;28;45390;-68
2022/12/02 01:23:47;;;;;;;;;56.00;46.50;;;;;6.57;72.37;101460.66;5055860;28;45618;-73
2022/12/02 01:26:13;;;;;;;;;50.50;43.00;;;;;6.59;72.80;101458.00;5037249;28;47238;-70
2022/12/02 01:28:38;;;;;;;;;52.25;44.50;;;;;6.60;72.62;101451.03;5053728;28;45779;-70
2022/12/02 01:31:03;;;;;;;;;48.50;42.00;;;;;6.58;73.23;101459.75;5054399;28;45579;-67
2022/12/02 01:33:29;;;;;;;;;45.75;39.00;;;;;6.52;72.02;101453.72;5070298;28;45666;-70
2022/12/02 01:35:54;;;;;;;;;47.25;40.50;;;;;6.53;72.10;101463.28;5054961;28;46282;-71
2022/12/02 01:38:19;;;;;;;;;49.50;39.25;;;;;6.53;72.61;101458.06;5055033;28;45332;-72
2022/12/02 01:40:45;;;;;;;;;47.00;40.50;;;;;6.54;72.76;101462.41;5056895;28;45829;-71
2022/12/02 01:43:11;;;;;;;;;53.50;43.75;;;;;6.50;72.05;101458.09;5055627;28;45298;-72
2022/12/02 01:45:37;;;;;;;;;53.00;44.00;;;;;6.46;73.15;101453.78;5055100;28;46186;-67
2022/12/02 01:48:03;;;;;;;;;51.75;43.00;;;;;6.50;73.20;101473.78;5056036;28;45295;-68
2022/12/02 01:50:30;;;;;;;;;51.75;44.00;;;;;6.49;72.65;101472.91;5055680;28;45320;-70
2022/12/02 01:52:56;;;;;;;;;51.75;43.50;;;;;6.42;72.88;101464.25;5054621;28;45261;-74
2022/12/02 01:55:23;;;;;;;;;53.25;45.25;;;;;6.48;72.66;101470.31;5053773;28;45319;-73
2022/12/02 01:57:49;;;;;;;;;51.00;43.00;;;;;6.42;73.50;101471.25;5054008;28;45328;-72
2022/12/02 02:00:15;;;;;;;;;50.50;42.00;;;;;6.38;72.93;101474.75;5053900;28;45340;-73
2022/12/02 02:02:41;;;;;;;;;49.25;43.00;;;;;6.40;73.11;101478.22;5054229;28;45393;-72
2022/12/02 02:05:12;;;;;;;;;48.00;40.75;;;;;6.36;73.41;101466.03;5053576;28;45202;-72
2022/12/02 02:07:39;;;;;;;;;56.25;47.00;;;;;6.43;73.80;101470.34;5053975;28;45316;-67
2022/12/02 02:10:06;;;;;;;;;51.25;41.00;;;;;6.46;73.72;101470.34;5055013;28;45312;-72
2022/12/02 02:12:32;;;;;;;;;55.25;45.50;;;;;6.46;73.31;101479.91;5058514;28;45391;-69
2022/12/02 02:14:57;;;;;;;;;53.25;45.50;;;;;6.45;72.94;101486.00;5058869;28;46110;-71
2022/12/02 02:17:23;;;;;;;;;56.50;45.25;;;;;6.45;73.15;101468.59;5057805;28;45217;-71
2022/12/02 02:19:49;;;;;;;;;48.50;41.25;;;;;6.45;72.60;101452.91;5057797;28;45418;-67
2022/12/02 02:22:23;;;;;;;;;49.00;42.25;;;;;6.47;72.37;101448.53;5057660;28;45273;-67
2022/12/02 02:24:48;;;;;;;;;52.25;44.00;;;;;6.49;72.84;101453.75;5057495;28;46587;-71
2022/12/02 02:27:14;;;;;;;;;51.25;43.00;;;;;6.51;72.78;101447.63;5075250;27;45404;-72
2022/12/02 02:29:40;;;;;;;;;43.00;38.25;;;;;6.50;72.15;101451.13;5057877;28;45316;-73
2022/12/02 02:32:05;;;;;;;;;32.25;30.50;;;;;6.47;73.08;101445.94;5057523;28;45422;-74
2022/12/02 02:34:30;;;;;;;;;50.75;42.75;;;;;6.46;72.34;101435.47;5058333;28;45458;-73
2022/12/02 02:36:56;;;;;;;;;52.50;43.75;;;;;6.47;72.67;101442.44;5058062;28;45346;-71
2022/12/02 02:39:22;;;;;;;;;51.00;42.75;;;;;6.43;73.01;101428.53;5039107;28;45403;-68
2022/12/02 02:41:48;;;;;;;;;54.00;45.00;;;;;6.42;72.33;101432.03;5057493;28;45328;-71
2022/12/02 02:44:14;;;;;;;;;51.00;42.50;;;;;6.41;71.97;101427.69;5057282;28;45301;-72
2022/12/02 02:46:40;;;;;;;;;44.00;38.75;;;;;6.41;72.43;101423.31;5057122;28;45307;-72
2022/12/02 02:49:05;;;;;;;;;51.75;43.50;;;;;6.39;72.82;101425.06;5057062;28;45317;-72
2022/12/02 02:51:31;;;;;;;;;52.50;45.00;;;;;6.45;73.26;101423.28;5057458;28;45575;-70
2022/12/02 02:53:56;;;;;;;;;55.00;44.50;;;;;6.45;72.18;101424.16;5056710;28;46253;-71
2022/12/02 02:56:22;;;;;;;;;49.75;41.50;;;;;6.43;72.72;101420.69;5056804;28;45471;-71
2022/12/02 02:58:47;;;;;;;;;53.25;44.00;;;;;6.49;72.55;101427.59;5057449;28;45431;-72
2022/12/02 03:01:17;;;;;;;;;53.00;44.25;;;;;6.52;71.86;101420.63;5058913;28;45262;-72
2022/12/02 03:03:52;;;;;;;;;48.00;42.00;;;;;6.55;72.36;101417.97;5057425;28;45405;-71
2022/12/02 03:06:18;;;;;;;;;51.75;43.25;;;;;6.54;72.47;101410.13;5057438;28;45397;-70
2022/12/02 03:08:47;;;;;;;;;52.00;44.00;;;;;6.50;72.46;101411.91;5057628;28;45480;-70
2022/12/02 03:11:13;;;;;;;;;51.50;43.00;;;;;6.49;73.00;101401.47;5057758;28;45520;-70
2022/12/02 03:13:41;;;;;;;;;51.75;43.25;;;;;6.47;71.97;101406.72;5057526;28;46182;-68
2022/12/02 03:16:10;;;;;;;;;53.25;45.00;;;;;6.49;72.18;101411.91;5039141;28;45384;-68
2022/12/02 03:18:35;;;;;;;;;53.75;45.25;;;;;6.47;72.18;101411.94;5056510;28;45385;-68
2022/12/02 03:21:01;;;;;;;;;49.25;42.50;;;;;6.45;72.31;101418.94;5057069;28;45518;-69
2022/12/02 03:23:29;;;;;;;;;52.00;43.75;;;;;6.47;72.53;101411.94;5037943;28;48726;-69
2022/12/02 03:25:55;;;;;;;;;51.75;43.75;;;;;6.46;72.66;101406.72;5057003;28;45337;-71
2022/12/02 03:28:21;;;;;;;;;37.75;33.50;;;;;6.38;71.48;101389.38;5056443;28;45481;-71
2022/12/02 03:30:47;;;;;;;;;48.50;40.50;;;;;6.44;72.04;101404.13;5056625;28;45434;-72
2022/12/02 03:33:12;;;;;;;;;51.75;43.50;;;;;6.43;72.41;101397.19;5056820;28;47200;-73
2022/12/02 03:35:38;;;;;;;;;51.25;43.75;;;;;6.46;71.73;101398.88;5057502;28;45317;-72
2022/12/02 03:38:03;;;;;;;;;44.50;39.25;;;;;6.49;72.11;101394.50;5057245;28;45502;-70
2022/12/02 03:40:29;;;;;;;;;53.25;43.00;;;;;6.45;72.22;101384.97;5056790;28;45328;-69
2022/12/02 03:42:55;;;;;;;;;43.00;38.25;;;;;6.44;71.76;101385.84;5038194;28;48188;-69
2022/12/02 03:45:21;;;;;;;;;49.75;41.50;;;;;6.38;71.80;101378.91;5056396;28;45360;-69
2022/12/02 03:47:46;;;;;;;;;47.75;40.50;;;;;6.42;71.34;101385.00;5057209;28;45251;-69
2022/12/02 03:50:12;;;;;;;;;52.00;42.50;;;;;6.42;72.09;101385.00;5056917;28;45302;-68
2022/12/02 03:52:38;;;;;;;;;52.75;43.50;;;;;6.39;72.51;101378.03;5056315;28;46473;-71
2022/12/02 03:55:05;;;;;;;;;49.50;41.75;;;;;6.36;72.29;101366.72;5056990;28;45237;-70
2022/12/02 03:57:32;;;;;;;;;47.50;39.75;;;;;6.40;72.11;101373.69;5059122;28;45327;-69
2022/12/02 03:59:58;;;;;;;;;46.75;37.25;;;;;6.40;72.23;101376.31;5060218;28;45660;-69
2022/12/02 04:02:23;;;;;;;;;52.00;43.75;;;;;6.37;71.89;101373.72;5072298;28;47259;-70
2022/12/02 04:04:49;;;;;;;;;50.25;42.75;;;;;6.36;71.82;101374.56;5055947;28;45378;-70
2022/12/02 04:07:14;;;;;;;;;45.75;38.25;;;;;6.42;72.20;101383.22;5056158;28;45395;-69
2022/12/02 04:09:39;;;;;;;;;51.50;42.75;;;;;6.43;72.51;101376.28;5056376;28;45375;-70
2022/12/02 04:12:05;;;;;;;;;55.25;45.50;;;;;6.41;72.06;101367.59;5057355;28;45387;-69
2022/12/02 04:14:30;;;;;;;;;48.00;41.25;;;;;6.40;71.30;101366.69;5056495;28;45341;-70
2022/12/02 04:16:55;;;;;;;;;56.75;46.00;;;;;6.39;71.88;101361.50;5055766;28;47976;-69
2022/12/02 04:19:21;;;;;;;;;49.50;42.50;;;;;6.39;72.13;101357.13;5056218;28;45300;-68
2022/12/02 04:21:46;;;;;;;;;55.00;44.75;;;;;6.43;72.57;101347.53;5055960;28;45379;-70
2022/12/02 04:24:11;;;;;;;;;48.00;41.00;;;;;6.45;72.20;101353.59;5055306;28;45294;-68
2022/12/02 04:26:37;;;;;;;;;53.00;44.50;;;;;6.42;72.05;101341.41;5056243;28;45418;-71
2022/12/02 04:29:02;;;;;;;;;57.50;48.00;;;;;6.42;72.26;101341.41;5056340;28;45308;-70
2022/12/02 04:31:27;;;;;;;;;51.25;42.25;;;;;6.41;71.98;101344.06;5055563;28;45262;-68
2022/12/02 04:33:53;;;;;;;;;50.50;42.75;;;;;6.37;71.96;101353.66;5054991;28;45386;-69
2022/12/02 04:36:18;;;;;;;;;52.75;44.25;;;;;6.39;71.92;101357.13;5056633;28;47437;-69
2022/12/02 04:38:43;;;;;;;;;49.50;42.50;;;;;6.41;72.08;101354.50;5056760;28;45386;-68
2022/12/02 04:41:09;;;;;;;;;50.00;41.50;;;;;6.37;72.43;101345.81;5055813;28;45234;-69
2022/12/02 04:43:34;;;;;;;;;55.00;43.25;;;;;6.42;71.90;101358.84;5055576;28;50073;-69
2022/12/02 04:46:02;;;;;;;;;54.50;44.75;;;;;6.39;72.24;101351.06;5055593;28;45257;-72
2022/12/02 04:48:27;;;;;;;;;52.25;43.75;;;;;6.32;71.97;101345.00;5056803;28;45312;-68
2022/12/02 04:50:52;;;;;;;;;57.50;46.00;;;;;6.31;72.50;101342.41;5055261;28;45535;-68
2022/12/02 04:53:18;;;;;;;;;57.25;44.25;;;;;6.30;72.47;101344.16;5054793;28;50548;-70
2022/12/02 04:55:45;;;;;;;;;54.25;45.25;;;;;6.33;71.77;101343.25;5055211;28;45366;-68
2022/12/02 04:58:13;;;;;;;;;52.00;43.75;;;;;6.35;71.92;101350.19;5055560;28;45562;-70
2022/12/02 05:00:38;;;;;;;;;56.50;47.00;;;;;6.27;71.87;101331.13;5071399;27;47939;-68
2022/12/02 05:03:03;;;;;;;;;53.50;44.00;;;;;6.32;72.50;101344.13;5037336;28;45324;-69
2022/12/02 05:05:29;;;;;;;;;56.25;44.00;;;;;6.34;72.92;101334.53;5054933;28;45300;-69
2022/12/02 05:07:54;;;;;;;;;53.50;44.25;;;;;6.35;73.07;101331.91;5055671;28;45517;-70
2022/12/02 05:10:20;;;;;;;;;50.75;42.50;;;;;6.28;72.77;101319.78;5055431;28;45320;-69
2022/12/02 05:12:45;;;;;;;;;55.50;45.75;;;;;6.32;72.32;101321.50;5054599;28;45416;-70
2022/12/02 05:15:10;;;;;;;;;58.25;47.25;;;;;6.28;72.18;101317.19;5055082;28;45270;-70
2022/12/02 05:17:35;;;;;;;;;57.00;46.75;;;;;6.32;73.30;101321.50;5056981;28;45660;-69
2022/12/02 05:20:01;;;;;;;;;58.75;48.75;;;;;6.36;72.91;101331.03;5055951;28;46129;-68
2022/12/02 05:22:26;;;;;;;;;64.00;52.00;;;;;6.28;72.13;101314.56;5054749;28;45339;-73
2022/12/02 05:24:51;;;;;;;;;61.75;49.00;;;;;6.36;72.22;101324.91;5055522;28;45445;-70
2022/12/02 05:27:17;;;;;;;;;58.75;49.00;;;;;6.36;72.74;101323.19;5055526;28;45587;-69
2022/12/02 05:29:42;;;;;;;;;43.25;39.00;;;;;6.35;73.06;101317.97;5055183;28;45344;-70
2022/12/02 05:32:08;;;;;;;;;59.00;49.50;;;;;6.37;73.20;101318.84;5055671;28;45312;-69
2022/12/02 05:34:33;;;;;;;;;58.00;48.25;;;;;6.36;73.39;101309.25;5056282;28;45259;-70
2022/12/02 05:36:58;;;;;;;;;55.50;47.50;;;;;6.41;72.79;101315.31;5054818;28;45517;-69
2022/12/02 05:39:24;;;;;;;;;57.50;46.00;;;;;6.40;73.49;101293.53;5054684;28;52351;-69
2022/12/02 05:41:49;;;;;;;;;57.25;45.75;;;;;6.41;72.78;101290.03;5054637;28;45288;-70
2022/12/02 05:44:25;;;;;;;;;62.25;50.75;;;;;6.44;72.88;101297.00;5054943;28;45331;-71
2022/12/02 05:46:52;;;;;;;;;66.50;53.25;;;;;6.36;72.92;101286.59;5074189;28;45256;-70
2022/12/02 05:49:22;;;;;;;;;60.50;50.25;;;;;6.32;73.18;101291.88;5059220;28;46305;-70
2022/12/02 05:51:59;;;;;;;;;59.50;49.75;;;;;6.36;73.07;101307.50;5058414;28;45357;-69
2022/12/02 05:54:26;;;;;;;;;64.75;51.50;;;;;6.36;72.47;101304.00;5058325;28;45397;-69
2022/12/02 05:56:52;;;;;;;;;66.00;52.25;;;;;6.36;73.04;101296.19;5058353;28;45231;-70
2022/12/02 05:59:20;;;;;;;;;68.00;54.50;;;;;6.39;72.74;101296.16;5057740;28;45424;-69
2022/12/02 06:01:49;;;;;;;;;62.00;50.00;;;;;6.40;72.28;101297.91;5057403;28;45384;-69
2022/12/02 06:04:19;;;;;;;;;66.25;52.50;;;;;6.35;72.78;101297.94;5058116;28;45339;-69
2022/12/02 06:06:45;;;;;;;;;62.00;50.50;;;;;6.36;73.00;101289.22;5059105;28;45246;-71
2022/12/02 06:09:16;;;;;;;;;63.25;52.50;;;;;6.36;72.64;101277.88;5058295;28;46134;-71
2022/12/02 06:11:43;;;;;;;;;66.75;51.25;;;;;6.35;73.33;101281.38;5058516;28;45320;-68
2022/12/02 06:14:21;;;;;;;;;63.25;51.00;;;;;6.35;72.55;101284.00;5059515;28;45328;-69
2022/12/02 06:16:54;;;;;;;;;62.00;50.50;;;;;6.33;72.77;101291.88;5040165;28;45374;-69
2022/12/02 06:19:25;;;;;;;;;63.00;50.25;;;;;6.32;73.24;101295.38;5059845;28;45356;-70
2022/12/02 06:21:52;;;;;;;;;61.00;50.00;;;;;6.31;73.65;101274.47;5058195;28;45347;-69
2022/12/02 06:24:24;;;;;;;;;57.50;47.25;;;;;6.33;72.85;101286.63;5073262;27;45447;-70
2022/12/02 06:26:51;;;;;;;;;49.00;42.00;;;;;6.33;72.98;101273.56;5058000;28;45401;-70
2022/12/02 06:29:18;;;;;;;;;58.25;45.75;;;;;6.36;73.76;101276.16;5058862;28;46281;-70
2022/12/02 06:31:43;;;;;;;;;57.75;45.00;;;;;6.35;72.70;101278.78;5058086;28;45363;-70
2022/12/02 06:34:21;;;;;;;;;56.75;47.25;;;;;6.32;73.76;101271.84;5058183;28;45420;-70
2022/12/02 06:36:46;;;;;;;;;60.50;48.75;;;;;6.13;73.43;101234.59;5059572;28;45283;-70
2022/12/02 06:39:19;;;;;;;;;56.25;46.75;;;;;6.41;73.10;101283.94;5058030;28;45474;-71
2022/12/02 06:41:45;;;;;;;;;57.75;46.25;;;;;6.33;73.52;101267.47;5057743;28;45329;-70
2022/12/02 06:47:31;;;;;;;;;57.00;45.25;;;;;6.43;73.71;101277.81;5057820;28;45945;-72
2022/12/02 06:49:57;;;;;;;;;60.25;49.75;;;;;6.42;73.70;101270.00;5057232;28;46336;-73
2022/12/02 06:52:22;;;;;;;;;52.50;43.75;;;;;6.34;73.21;101258.75;5057607;28;45296;-68
2022/12/02 06:54:50;;;;;;;;;56.75;48.00;;;;;6.39;73.50;101273.50;5040249;28;45241;-69
2022/12/02 06:57:18;;;;;;;;;57.25;47.00;;;;;6.40;73.42;101272.63;5057323;28;45387;-69
2022/12/02 06:59:47;;;;;;;;;55.75;46.50;;;;;6.40;73.31;101271.78;5057630;28;46304;-69
2022/12/02 07:02:25;;;;;;;;;55.25;47.00;;;;;6.37;73.22;101263.97;5060777;28;45544;-70
2022/12/02 07:04:51;;;;;;;;;55.75;46.50;;;;;6.37;73.12;101269.19;5061528;28;45470;-73
2022/12/02 07:07:22;;;;;;;;;65.50;51.00;;;;;6.35;74.12;101269.19;5057910;28;45402;-72
2022/12/02 07:09:52;;;;;;;;;58.75;47.75;;;;;6.40;74.10;101267.38;5049336;28;45341;-71
2022/12/02 07:12:22;;;;;;;;;61.25;49.75;;;;;6.41;74.14;101276.97;5076502;28;45454;-71
2022/12/02 07:14:54;;;;;;;;;64.00;50.00;;;;;6.43;73.85;101276.97;5056136;28;45462;-70
2022/12/02 07:17:22;;;;;;;;;55.50;46.75;;;;;6.42;73.71;101272.63;5057361;28;45546;-69
2022/12/02 07:20:10;;;;;;;;;57.50;46.25;;;;;6.17;74.44;101233.69;5057429;28;46543;-71
2022/12/02 07:22:39;;;;;;;;;58.00;46.25;;;;;6.34;74.45;101263.97;5044432;28;45438;-70
2022/12/02 07:25:07;;;;;;;;;57.25;48.25;;;;;6.40;74.24;101274.38;5059793;28;45340;-77
2022/12/02 07:27:36;;;;;;;;;61.50;51.00;;;;;6.41;74.23;101273.50;5059565;28;45598;-74
2022/12/02 07:30:02;;;;;;;;;61.00;50.00;;;;;6.40;74.87;101280.47;5057989;28;45415;-75
2022/12/02 07:32:28;;;;;;;;;63.00;51.75;;;;;6.43;74.48;101274.34;5057244;28;45376;-75
2022/12/02 07:34:53;;;;;;;;;58.00;47.00;;;;;6.44;73.77;101268.25;5055850;28;45438;-70
2022/12/02 07:37:19;;;;;;;;;60.50;49.25;;;;;6.42;74.61;101263.00;5057275;28;45593;-71
2022/12/02 07:39:44;;;;;;;;;60.75;48.75;;;;;6.40;74.90;101256.94;5048083;28;47092;-74
2022/12/02 07:42:09;;;;;;;;;61.00;48.00;;;;;6.35;74.63;101253.53;5031315;28;45518;-72
2022/12/02 07:44:35;;;;;;;;;56.50;46.25;;;;;6.39;75.09;101270.03;5047694;28;45463;-74
2022/12/02 07:47:01;;;;;;;;;56.25;46.75;;;;;6.39;75.60;101267.44;5048022;28;46192;-69
2022/12/02 07:49:26;;;;;;;;;62.25;48.75;;;;;6.34;74.86;101267.47;5057704;28;45281;-70
2022/12/02 07:51:52;;;;;;;;;61.75;49.25;;;;;6.39;75.00;101277.88;5057218;28;45670;-71
2022/12/02 07:54:17;;;;;;;;;60.50;49.50;;;;;6.38;75.29;101271.78;5046480;28;45533;-71
2022/12/02 07:56:43;;;;;;;;;60.50;49.75;;;;;6.29;75.42;101256.19;5049273;28;45260;-71
2022/12/02 07:59:08;;;;;;;;;60.25;48.00;;;;;6.23;74.80;101244.06;5044387;28;46171;-70
2022/12/02 08:01:34;;;;;;;;;57.00;47.00;;;;;6.26;75.42;101262.31;5053555;28;45438;-72
2022/12/02 08:03:59;;;;;;;;;59.50;48.50;;;;;6.00;75.38;101218.19;5040972;28;45411;-70
2022/12/02 08:06:24;;;;;;;;;61.25;48.50;;;;;6.27;76.39;101264.03;5056333;28;45641;-75
2022/12/02 08:08:50;;;;;;;;;66.00;51.75;;;;;6.33;76.34;101267.47;5052018;28;46165;-72
2022/12/02 08:11:15;;;;;;;;;67.25;52.00;;;;;6.32;75.68;101268.34;5055008;28;45375;-71
2022/12/02 08:13:41;;;;;;;;;61.25;50.50;;;;;6.34;75.77;101267.47;5056876;28;45304;-72
2022/12/02 08:16:07;;;;;;;;;61.50;50.50;;;;;6.29;75.00;101262.28;5056657;28;45508;-72
2022/12/02 08:18:33;;;;;;;;;66.50;52.00;;;;;6.29;75.29;101258.81;5056520;28;48539;-75
2022/12/02 08:20:59;;;;;;;;;57.00;47.25;;;;;6.26;75.80;101262.31;5070864;28;45392;-73
2022/12/02 08:23:24;;;;;;;;;65.25;54.00;;;;;6.31;75.28;101264.88;5056915;28;45730;-76
2022/12/02 08:25:50;;;;;;;;;64.75;50.25;;;;;6.25;75.36;101257.13;5045412;28;45347;-77
2022/12/02 08:28:15;;;;;;;;;69.50;55.00;;;;;6.08;75.70;101231.19;5036594;28;45906;-77
2022/12/02 08:30:40;;;;;;;;;58.00;47.25;;;;;6.27;75.55;101263.19;5035465;28;45393;-75
2022/12/02 08:33:06;;;;;;;;;63.75;52.25;;;;;6.38;75.69;101273.53;5036660;28;45190;-77
2022/12/02 08:35:31;;;;;;;;;61.00;49.75;;;;;6.41;74.53;101278.72;5036516;28;45638;-76
2022/12/02 08:37:57;;;;;;;;;62.25;50.75;;;;;6.40;74.82;101274.38;5051442;28;46523;-77
2022/12/02 08:40:23;;;;;;;;;64.00;52.00;;;;;6.37;74.94;101275.28;5037700;28;45171;-75
2022/12/02 08:42:49;;;;;;;;;63.00;52.00;;;;;6.38;75.46;101273.53;5036502;28;45442;-77
2022/12/02 08:45:14;;;;;;;;;68.25;53.25;;;;;6.39;74.52;101268.28;5037891;28;45466;-74
2022/12/02 08:47:40;;;;;;;;;58.75;48.00;;;;;6.40;74.31;101271.78;5037841;28;46066;-77
2022/12/02 08:50:06;;;;;;;;;61.75;49.25;;;;;6.25;74.87;101254.50;5036258;28;45432;-76
2022/12/02 08:52:32;;;;;;;;;65.25;51.25;;;;;6.41;74.83;101273.50;5036266;28;45295;-74
2022/12/02 08:54:58;;;;;;;;;63.50;51.50;;;;;6.43;74.96;101274.34;5051636;28;45546;-76
2022/12/02 08:57:24;;;;;;;;;64.75;51.25;;;;;6.47;75.33;101269.94;5035793;28;45666;-75
2022/12/02 08:59:49;;;;;;;;;61.00;50.25;;;;;6.38;74.74;101256.09;5036314;28;45479;-75
2022/12/02 09:02:15;;;;;;;;;66.25;51.25;;;;;6.47;75.06;101262.97;5034752;28;45348;-76
2022/12/02 09:04:40;;;;;;;;;60.25;49.00;;;;;6.46;74.43;101245.56;5036388;28;45632;-76
2022/12/02 09:07:09;;;;;;;;;66.25;52.75;;;;;6.50;74.21;101252.47;5036728;28;45698;-76
2022/12/02 09:09:35;;;;;;;;;66.00;50.75;;;;;6.58;74.21;101260.22;5037082;28;45451;-75
2022/12/02 09:12:01;;;;;;;;;71.00;54.25;;;;;6.61;74.27;101254.09;5037137;28;45427;-74
2022/12/02 09:14:27;;;;;;;;;64.00;52.00;;;;;6.65;74.54;101261.00;5036917;28;45612;-75
2022/12/02 09:16:53;;;;;;;;;66.00;51.75;;;;;6.61;74.52;101251.47;5034859;28;46018;-75
2022/12/02 09:19:18;;;;;;;;;64.25;50.75;;;;;6.63;74.32;101262.78;5035066;28;45349;-76
2022/12/02 09:21:44;;;;;;;;;66.00;53.00;;;;;6.60;73.94;101263.66;5034884;28;45315;-78
2022/12/02 09:24:09;;;;;;;;;67.25;54.75;;;;;6.59;73.96;101267.16;5034945;28;45446;-77
2022/12/02 09:26:35;;;;;;;;;70.00;55.75;;;;;6.46;74.77;101242.06;5036373;28;46068;-75
2022/12/02 09:29:00;;;;;;;;;65.00;52.25;;;;;6.62;74.10;101263.66;5037306;28;45476;-75
2022/12/02 09:31:25;;;;;;;;;66.75;54.00;;;;;6.64;73.97;101261.91;5037150;28;45300;-76
2022/12/02 09:33:51;;;;;;;;;67.75;54.50;;;;;6.60;73.39;101257.59;5037648;28;45250;-75
2022/12/02 09:36:16;;;;;;;;;66.50;54.00;;;;;6.53;72.96;101251.56;5037338;28;46367;-78
2022/12/02 09:38:42;;;;;;;;;70.50;55.75;;;;;6.48;73.40;101249.03;5035946;28;45163;-76
2022/12/02 09:41:07;;;;;;;;;67.00;54.00;;;;;6.47;73.61;101260.38;5035777;28;45347;-77
2022/12/02 09:43:32;;;;;;;;;64.00;51.50;;;;;6.35;73.70;101236.97;5035548;28;45241;-75
2022/12/02 09:45:59;;;;;;;;;68.25;55.00;;;;;6.43;74.19;101248.22;5035434;28;46062;-75
2022/12/02 09:48:26;;;;;;;;;67.75;54.50;;;;;6.41;74.19;101236.91;5036487;28;45296;-76
2022/12/02 09:50:54;;;;;;;;;71.50;54.75;;;;;6.47;74.73;101249.03;5036964;28;45349;-76
2022/12/02 09:53:20;;;;;;;;;68.50;54.50;;;;;6.41;74.20;101232.53;5036194;28;45407;-75
2022/12/02 09:55:46;;;;;;;;;73.50;58.00;;;;;6.46;74.69;101240.34;5034940;28;46319;-75
2022/12/02 09:58:20;;;;;;;;;61.50;49.50;;;;;6.45;73.59;101240.34;5033944;28;45582;-77
2022/12/02 10:00:49;;;;;;;;;64.50;52.50;;;;;6.35;73.82;101221.28;5035534;28;45327;-76
2022/12/02 10:03:16;;;;;;;;;69.75;56.00;;;;;6.34;74.06;101211.72;5035097;28;45613;-76
2022/12/02 10:05:43;;;;;;;;;224.00;195.25;;;;;6.51;73.55;101228.06;5034665;28;45418;-75
2022/12/02 10:08:18;;;;;;;;;71.75;58.50;;;;;6.55;73.58;101234.09;5035283;28;45366;-76
2022/12/02 10:10:44;;;;;;;;;69.25;56.25;;;;;6.56;74.08;101234.09;5034976;28;45398;-76
2022/12/02 10:13:13;;;;;;;;;71.25;55.50;;;;;6.58;73.95;101221.00;5036208;28;45230;-76
2022/12/02 10:15:39;;;;;;;;;76.50;65.75;;;;;6.65;74.61;101221.78;5038609;28;46153;-75
2022/12/02 10:18:14;;;;;;;;;73.00;60.00;;;;;6.68;73.59;101216.53;5035186;28;46361;-78
2022/12/02 10:20:39;;;;;;;;;84.00;72.75;;;;;6.71;74.08;101219.94;5034752;28;45222;-74
2022/12/02 10:23:25;;;;;;;;;70.25;54.50;;;;;6.75;73.70;101236.47;5034778;28;45724;-76
2022/12/02 10:26:10;;;;;;;;;73.00;60.50;;;;;6.82;74.14;101218.94;5034697;28;45420;-76
2022/12/02 10:28:37;;;;;;;;;69.25;54.00;;;;;6.86;73.28;101216.25;5034973;28;45456;-76
2022/12/02 10:31:18;;;;;;;;;60.25;49.25;;;;;6.85;72.67;101203.19;5036702;28;45472;-74
2022/12/02 10:33:56;;;;;;;;;67.00;55.00;;;;;6.82;72.43;101203.22;5038263;28;45283;-76
2022/12/02 10:36:35;;;;;;;;;62.25;51.00;;;;;6.76;73.21;101206.81;5038151;28;46407;-76
2022/12/02 10:39:20;;;;;;;;;66.75;51.75;;;;;6.83;72.79;101208.47;5039372;28;45244;-77
2022/12/02 10:42:04;;;;;;;;;72.25;54.50;;;;;6.77;73.06;101207.66;5038773;28;45367;-77
2022/12/02 10:44:35;;;;;;;;;71.00;56.25;;;;;6.76;72.20;101205.94;5038368;28;45414;-76
2022/12/02 10:47:24;;;;;;;;;69.75;56.25;;;;;6.71;72.74;101209.47;5020549;28;47702;-75
2022/12/02 10:49:55;;;;;;;;;66.50;54.00;;;;;6.74;72.64;101198.13;5019136;28;45413;-75
2022/12/02 10:52:27;;;;;;;;;66.25;54.00;;;;;6.80;72.49;101191.94;5037894;28;45248;-75
2022/12/02 10:54:55;;;;;;;;;63.00;51.25;;;;;6.75;72.02;101186.78;5038028;28;45218;-76
2022/12/02 10:57:27;;;;;;;;;69.50;57.00;;;;;6.73;72.69;101178.09;5019578;28;46460;-77
2022/12/02 10:59:56;;;;;;;;;64.50;51.75;;;;;6.72;73.22;101176.38;5039763;28;45333;-76
2022/12/02 11:02:34;;;;;;;;;66.50;54.75;;;;;6.66;72.65;101173.84;5037981;28;45440;-77
2022/12/02 11:05:13;;;;;;;;;71.00;55.25;;;;;6.60;72.52;101180.00;5039363;28;45456;-75
2022/12/02 11:07:39;;;;;;;;;68.75;54.75;;;;;6.51;72.82;101157.50;5038503;28;46093;-76
2022/12/02 11:10:05;;;;;;;;;70.75;55.75;;;;;6.58;73.81;101169.59;5037180;28;45474;-76
2022/12/02 11:12:47;;;;;;;;;63.75;50.25;;;;;6.54;72.85;101167.03;5037139;28;45365;-76
2022/12/02 11:15:43;;;;;;;;;72.75;56.50;;;;;6.53;72.60;101165.31;5037299;28;45191;-78
2022/12/02 11:18:28;;;;;;;;;74.00;62.50;;;;;6.53;73.41;101165.31;5036855;28;45787;-76
2022/12/02 11:21:00;;;;;;;;;72.25;55.50;;;;;6.56;73.34;101158.31;5038159;28;45344;-76
2022/12/02 11:23:30;;;;;;;;;72.25;57.25;;;;;6.58;73.86;101166.09;5038727;28;45432;-74